createdAt,value
2023-01-03T00:01:34.760Z,101398.94
2023-01-03T00:04:03.744Z,101398.03
2023-01-03T00:06:33.842Z,101404.06
2023-01-03T00:09:06.597Z,101397.16
2023-01-03T00:11:54.817Z,101397.91
2023-01-03T00:14:25.384Z,101397.00
2023-01-03T00:16:55.157Z,101403.84
2023-01-03T00:19:25.032Z,101403.72
2023-01-03T00:21:54.355Z,101397.63
2023-01-03T00:24:22.778Z,101396.72
2023-01-03T00:26:52.865Z,101397.53
2023-01-03T00:29:22.244Z,101392.22
2023-01-03T00:31:50.924Z,101397.34
2023-01-03T00:34:19.325Z,101389.53
2023-01-03T00:36:48.224Z,101399.09
2023-01-03T00:39:17.421Z,101393.03
2023-01-03T00:41:46.485Z,101392.13
2023-01-03T00:44:16.860Z,101380.97
2023-01-03T00:46:45.961Z,101387.00
2023-01-03T00:49:15.182Z,101387.84
2023-01-03T00:51:44.659Z,101380.03
2023-01-03T00:54:15.088Z,101373.88
2023-01-03T00:56:45.096Z,101372.94
2023-01-03T00:59:17.481Z,101378.94
2023-01-03T01:01:48.246Z,101372.28
2023-01-03T01:04:21.718Z,101380.03
2023-01-03T01:06:54.248Z,101366.16
2023-01-03T01:09:23.304Z,101370.59
2023-01-03T01:11:52.506Z,101367.94
2023-01-03T01:14:26.228Z,101368.75
2023-01-03T01:16:56.308Z,101362.66
2023-01-03T01:19:27.158Z,101359.16
2023-01-03T01:21:55.790Z,101350.50
2023-01-03T01:24:24.464Z,101355.63
2023-01-03T01:26:52.963Z,101351.25
2023-01-03T01:29:23.648Z,101346.13
2023-01-03T01:31:52.263Z,101345.16
2023-01-03T01:34:20.539Z,101346.69
2023-01-03T01:36:50.130Z,101344.00
2023-01-03T01:39:20.796Z,101347.38
2023-01-03T01:42:08.975Z,101345.56
2023-01-03T01:44:54.576Z,101345.63
2023-01-03T01:47:49.091Z,101340.38
2023-01-03T01:50:23.405Z,101343.69
2023-01-03T01:52:56.288Z,101339.31
2023-01-03T01:55:27.494Z,101335.00
2023-01-03T01:57:56.090Z,101344.38
2023-01-03T02:00:25.829Z,101342.53
2023-01-03T02:02:56.850Z,101337.31
2023-01-03T02:05:25.975Z,101344.22
2023-01-03T02:07:55.502Z,101345.13
2023-01-03T02:10:36.904Z,101341.75
2023-01-03T02:13:12.550Z,101345.13
2023-01-03T02:15:56.995Z,101341.69
2023-01-03T02:18:37.245Z,101348.50
2023-01-03T02:21:44.049Z,101342.50
2023-01-03T02:24:34.724Z,101339.94
2023-01-03T02:27:14.461Z,101346.81
2023-01-03T02:30:16.022Z,101345.19
2023-01-03T02:32:52.255Z,101351.19
2023-01-03T02:35:27.668Z,101345.06
2023-01-03T02:38:00.401Z,101348.47
2023-01-03T02:40:36.230Z,101358.00
2023-01-03T02:43:09.927Z,101348.41
2023-01-03T02:45:55.572Z,101357.00
2023-01-03T02:48:34.737Z,101343.94
2023-01-03T02:51:09.068Z,101337.16
2023-01-03T02:53:44.373Z,101343.94
2023-01-03T02:56:18.177Z,101343.88
2023-01-03T02:58:49.908Z,101344.66
2023-01-03T03:01:20.532Z,101337.69
2023-01-03T03:03:51.081Z,101338.53
2023-01-03T03:06:26.916Z,101329.03
2023-01-03T03:08:55.437Z,101332.56
2023-01-03T03:11:44.008Z,101324.75
2023-01-03T03:14:19.018Z,101324.88
2023-01-03T03:16:50.671Z,101324.09
2023-01-03T03:19:49.894Z,101327.53
2023-01-03T03:22:46.372Z,101316.31
2023-01-03T03:25:19.653Z,101322.41
2023-01-03T03:28:08.110Z,101317.28
2023-01-03T03:30:40.639Z,101324.88
2023-01-03T03:33:09.970Z,101320.66
2023-01-03T03:35:46.966Z,101316.22
2023-01-03T03:38:20.308Z,101310.25
2023-01-03T03:41:14.746Z,101319.63
2023-01-03T03:44:10.527Z,101314.44
2023-01-03T03:46:52.394Z,101309.16
2023-01-03T03:49:41.544Z,101307.34
2023-01-03T03:52:16.938Z,101311.63
2023-01-03T03:54:52.480Z,101308.94
2023-01-03T03:57:27.554Z,101307.06
2023-01-03T04:00:00.610Z,101307.00
2023-01-03T04:02:32.105Z,101306.97
2023-01-03T04:05:06.031Z,101298.25
2023-01-03T04:07:36.391Z,101302.41
2023-01-03T04:10:06.105Z,101295.59
2023-01-03T04:12:34.660Z,101301.47
2023-01-03T04:15:03.996Z,101290.22
2023-01-03T04:17:32.380Z,101288.53
2023-01-03T04:20:00.651Z,101295.44
2023-01-03T04:22:29.066Z,101279.88
2023-01-03T04:24:59.046Z,101283.38
2023-01-03T04:27:27.336Z,101281.56
2023-01-03T04:29:55.762Z,101286.75
2023-01-03T04:32:24.775Z,101290.09
2023-01-03T04:34:53.118Z,101284.06
2023-01-03T04:37:21.628Z,101283.13
2023-01-03T04:39:49.957Z,101288.41
2023-01-03T04:42:45.521Z,101283.97
2023-01-03T04:45:14.178Z,101284.81
2023-01-03T04:47:42.464Z,101290.88
2023-01-03T04:50:11.070Z,101292.56
2023-01-03T04:52:39.968Z,101290.75
2023-01-03T04:55:09.825Z,101289.94
2023-01-03T04:57:39.549Z,101280.34
2023-01-03T05:00:09.464Z,101292.47
2023-01-03T05:02:37.847Z,101295.94
2023-01-03T05:05:07.525Z,101293.31
2023-01-03T05:07:36.398Z,101295.78
2023-01-03T05:10:05.351Z,101297.75
2023-01-03T05:12:33.696Z,101285.63
2023-01-03T05:15:04.864Z,101282.00
2023-01-03T05:17:33.216Z,101291.53
2023-01-03T05:20:19.189Z,101282.88
2023-01-03T05:23:05.086Z,101285.59
2023-01-03T05:25:51.714Z,101289.19
2023-01-03T05:28:22.296Z,101298.59
2023-01-03T05:30:53.097Z,101288.28
2023-01-03T05:33:21.466Z,101286.41
2023-01-03T05:35:50.953Z,101283.81
2023-01-03T05:38:19.286Z,101291.75
2023-01-03T05:40:47.884Z,101291.69
2023-01-03T05:43:16.187Z,101294.41
2023-01-03T05:45:44.991Z,101294.34
2023-01-03T05:48:14.699Z,101282.97
2023-01-03T05:50:43.555Z,101281.81
2023-01-03T05:53:13.265Z,101288.69
2023-01-03T05:55:41.858Z,101279.91
2023-01-03T05:58:12.482Z,101280.03
2023-01-03T06:00:41.223Z,101275.66
2023-01-03T06:03:09.623Z,101273.09
2023-01-03T06:05:43.257Z,101278.31
2023-01-03T06:09:39.392Z,101274.72
2023-01-03T06:34:13.668Z,101291.88
2023-01-03T06:55:05.589Z,101301.31
2023-01-03T12:14:38.219Z,101248.50
2023-01-03T15:20:31.480Z,101144.00
2023-01-03T15:23:26.741Z,101141.13
2023-01-03T15:26:31.974Z,101151.50
2023-01-03T15:29:24.048Z,101150.53
2023-01-03T15:32:05.354Z,101160.09
2023-01-03T15:34:48.729Z,101152.16
2023-01-03T15:37:36.668Z,101160.69
2023-01-03T15:40:09.250Z,101158.81
2023-01-03T15:43:04.213Z,101163.06
2023-01-03T15:45:44.653Z,101169.09
2023-01-03T15:48:22.748Z,101166.34
2023-01-03T15:50:53.817Z,101162.09
2023-01-03T15:53:27.860Z,101156.56
2023-01-03T15:55:59.740Z,101165.09
2023-01-03T15:58:30.771Z,101171.09
2023-01-03T16:01:01.089Z,101156.34
2023-01-03T16:03:31.927Z,101161.53
2023-01-03T16:06:00.537Z,101169.19
2023-01-03T16:08:37.860Z,101167.50
2023-01-03T16:11:20.058Z,101168.25
2023-01-03T16:13:51.151Z,101167.69
2023-01-03T16:16:25.505Z,101171.06
2023-01-03T16:18:56.379Z,101175.06
2023-01-03T16:21:30.045Z,101176.69
2023-01-03T16:24:07.587Z,101175.81
2023-01-03T16:26:36.282Z,101170.59
2023-01-03T16:29:07.674Z,101179.19
2023-01-03T16:31:41.612Z,101168.00
2023-01-03T16:34:33.657Z,101176.66
2023-01-03T16:37:13.341Z,101160.94
2023-01-03T16:39:49.038Z,101170.38
2023-01-03T16:42:30.714Z,101180.16
2023-01-03T16:45:04.634Z,101183.28
2023-01-03T16:47:52.283Z,101186.88
2023-01-03T16:50:25.705Z,101186.88
2023-01-03T16:52:57.276Z,101186.75
2023-01-03T16:55:29.882Z,101187.63
2023-01-03T16:57:59.513Z,101196.19
2023-01-03T17:00:30.018Z,101193.75
2023-01-03T17:03:00.379Z,101201.50
2023-01-03T17:05:35.304Z,101198.81
2023-01-03T17:08:07.583Z,101187.38
2023-01-03T17:10:41.824Z,101198.91
2023-01-03T17:13:25.580Z,101203.22
2023-01-03T17:15:54.015Z,101207.50
2023-01-03T17:18:24.663Z,101203.03
2023-01-03T17:20:57.480Z,101199.66
2023-01-03T17:23:26.782Z,101210.97
2023-01-03T17:25:57.529Z,101213.66
2023-01-03T17:28:25.889Z,101220.81
2023-01-03T17:30:56.774Z,101214.19
2023-01-03T17:33:33.615Z,101231.13
2023-01-03T17:36:02.709Z,101218.13
2023-01-03T17:38:33.177Z,101222.47
2023-01-03T17:41:02.995Z,101222.31
2023-01-03T17:43:32.424Z,101224.06
2023-01-03T17:46:23.791Z,101224.88
2023-01-03T17:49:10.016Z,101228.22
2023-01-03T17:51:38.912Z,101229.13
2023-01-03T17:54:07.604Z,101232.63
2023-01-03T17:56:38.030Z,101224.78
2023-01-03T17:59:06.389Z,101232.72
2023-01-03T18:01:35.823Z,101228.38
2023-01-03T18:04:04.617Z,101228.41
2023-01-03T18:06:33.505Z,101226.84
2023-01-03T18:09:05.569Z,101228.38
2023-01-03T18:11:34.273Z,101229.16
2023-01-03T18:14:04.011Z,101232.63
2023-01-03T18:16:32.546Z,101226.75
2023-01-03T18:19:01.434Z,101226.69
2023-01-03T18:21:29.984Z,101236.22
2023-01-03T18:24:01.750Z,101237.94
2023-01-03T18:26:34.374Z,101225.81
2023-01-03T18:29:05.115Z,101227.56
2023-01-03T18:31:33.798Z,101230.28
2023-01-03T18:34:04.758Z,101233.72
2023-01-03T18:36:40.314Z,101235.38
2023-01-03T18:39:15.205Z,101231.09
2023-01-03T18:41:44.287Z,101238.03
2023-01-03T18:44:23.199Z,101249.25
2023-01-03T18:46:53.712Z,101253.00
2023-01-03T18:49:22.333Z,101258.91
2023-01-03T18:51:54.127Z,101257.91
2023-01-03T18:54:22.621Z,101244.34
2023-01-03T18:56:51.155Z,101255.41
2023-01-03T18:59:24.153Z,101253.69
2023-01-03T19:01:52.627Z,101253.69
2023-01-03T19:04:21.185Z,101255.47
2023-01-03T19:06:52.204Z,101253.59
2023-01-03T19:09:25.388Z,101252.03
2023-01-03T19:11:55.808Z,101252.69
2023-01-03T19:14:25.896Z,101240.56
2023-01-03T19:16:54.334Z,101237.09
2023-01-03T19:19:22.662Z,101251.84
2023-01-03T19:21:51.085Z,101240.56
2023-01-03T19:24:24.796Z,101241.50
2023-01-03T19:26:55.837Z,101241.63
2023-01-03T19:29:28.576Z,101250.91
2023-01-03T19:31:58.108Z,101244.84
2023-01-03T19:34:28.443Z,101248.31
2023-01-03T19:36:56.827Z,101251.84
2023-01-03T19:39:26.805Z,101258.84
2023-01-03T19:42:17.178Z,101263.22
2023-01-03T19:44:50.209Z,101253.69
2023-01-03T19:47:20.789Z,101256.16
2023-01-03T19:49:49.969Z,101263.97
2023-01-03T19:52:19.909Z,101263.84
2023-01-03T19:54:48.525Z,101259.50
2023-01-03T19:57:22.506Z,101262.13
2023-01-03T19:59:54.690Z,101263.97
2023-01-03T20:02:36.958Z,101265.78
2023-01-03T20:05:14.976Z,101271.00
2023-01-03T20:07:43.466Z,101262.34
2023-01-03T20:10:16.280Z,101271.91
2023-01-03T20:12:44.843Z,101264.84
2023-01-03T20:15:21.246Z,101265.69
2023-01-03T20:17:49.611Z,101260.47
2023-01-03T20:20:18.137Z,101261.34
2023-01-03T20:23:04.705Z,101264.75
2023-01-03T20:25:35.466Z,101264.84
2023-01-03T20:28:04.343Z,101271.66
2023-01-03T20:30:35.612Z,101275.97
2023-01-03T20:33:03.947Z,101262.22
2023-01-03T20:38:25.163Z,101265.72
2023-01-03T20:40:53.793Z,101254.53
2023-01-03T20:43:22.691Z,101258.84
2023-01-03T20:45:55.207Z,101264.84
2023-01-03T20:48:26.304Z,101265.78
2023-01-03T20:50:55.201Z,101264.81
2023-01-03T20:53:25.476Z,101258.75
2023-01-03T20:55:54.287Z,101253.66
2023-01-03T20:58:25.499Z,101258.97
2023-01-03T21:01:04.022Z,101255.38
2023-01-03T21:03:34.781Z,101247.50
2023-01-03T21:06:03.786Z,101237.97
2023-01-03T21:08:49.317Z,101250.06
2023-01-03T21:11:17.717Z,101245.22
2023-01-03T21:13:46.127Z,101239.94
2023-01-03T21:16:29.671Z,101234.81
2023-01-03T21:19:02.412Z,101246.81
2023-01-03T21:21:32.171Z,101236.63
2023-01-03T21:24:00.592Z,101237.31
2023-01-03T21:26:29.077Z,101234.72
2023-01-03T21:28:58.081Z,101245.31
2023-01-03T21:31:28.341Z,101244.47
2023-01-03T21:33:56.927Z,101248.66
2023-01-03T21:36:28.185Z,101249.63
2023-01-03T21:38:57.503Z,101245.13
2023-01-03T21:41:27.630Z,101240.00
2023-01-03T21:43:56.800Z,101239.03
2023-01-03T21:46:26.600Z,101243.34
2023-01-03T21:48:57.363Z,101240.94
2023-01-03T21:51:41.357Z,101240.03
2023-01-03T21:54:10.739Z,101246.09
2023-01-03T21:56:45.717Z,101254.53
2023-01-03T21:59:14.723Z,101258.06
2023-01-03T22:02:13.250Z,101255.47
2023-01-03T22:04:42.984Z,101260.59
2023-01-03T22:07:11.336Z,101264.00
2023-01-03T22:09:57.139Z,101260.47
2023-01-03T22:12:25.442Z,101256.94
2023-01-03T22:14:53.816Z,101261.25
2023-01-03T22:17:22.411Z,101254.31
2023-01-03T22:19:52.108Z,101256.94
2023-01-03T22:22:20.420Z,101262.31
2023-01-03T22:24:48.903Z,101263.97
2023-01-03T22:27:18.306Z,101259.66
2023-01-03T22:29:46.952Z,101269.31
2023-01-03T22:32:15.301Z,101261.50
2023-01-03T22:34:43.653Z,101263.09
2023-01-03T22:37:13.318Z,101258.72
2023-01-03T22:39:41.558Z,101262.25
2023-01-03T22:42:14.547Z,101263.00
2023-01-03T22:44:46.255Z,101263.06
2023-01-03T22:47:14.499Z,101265.69
2023-01-03T22:49:42.863Z,101273.50
2023-01-03T22:52:12.850Z,101277.00
2023-01-03T22:54:41.706Z,101276.34
2023-01-03T22:57:10.004Z,101274.56
2023-01-03T22:59:40.454Z,101290.28
2023-01-03T23:02:08.909Z,101278.06
2023-01-03T23:04:37.404Z,101283.16
2023-01-03T23:07:06.147Z,101288.56
2023-01-03T23:09:35.835Z,101281.53
2023-01-03T23:12:21.599Z,101292.72
2023-01-03T23:14:50.199Z,101283.28
2023-01-03T23:17:35.981Z,101290.13
2023-01-03T23:20:04.412Z,101296.25
2023-01-03T23:22:33.220Z,101296.28
2023-01-03T23:25:03.256Z,101297.13
2023-01-03T23:27:31.720Z,101298.78
2023-01-03T23:30:00.281Z,101299.88
2023-01-03T23:32:28.852Z,101301.38
2023-01-03T23:34:57.397Z,101309.28
2023-01-03T23:37:27.266Z,101302.31
2023-01-03T23:39:55.932Z,101307.50
2023-01-03T23:42:25.879Z,101301.38
2023-01-03T23:44:54.210Z,101307.44
2023-01-03T23:47:22.566Z,101313.53
2023-01-03T23:49:50.843Z,101321.31
2023-01-03T23:52:19.124Z,101316.78
2023-01-03T23:54:47.777Z,101316.03
2023-01-03T23:57:16.077Z,101309.84
2023-01-03T23:59:45.777Z,101311.50
